createdAt,value
2022-09-05T00:03:49.953Z,17.30
2022-09-05T00:08:52.960Z,17.20
2022-09-05T00:13:55.765Z,17.10
2022-09-05T00:21:17.721Z,17.20
2022-09-05T00:24:45.764Z,17.20
2022-09-05T00:31:05.458Z,17.20
2022-09-05T00:35:08.901Z,17.30
2022-09-05T00:40:17.719Z,17.30
2022-09-05T00:45:25.131Z,17.30
2022-09-05T00:50:27.885Z,17.10
2022-09-05T00:55:30.880Z,17.10
2022-09-05T01:00:33.628Z,17.20
2022-09-05T01:05:36.339Z,17.10
2022-09-05T01:10:39.106Z,17.10
2022-09-05T01:15:41.836Z,17.10
2022-09-05T01:20:44.589Z,17.00
2022-09-05T01:25:54.898Z,17.00
2022-09-05T01:30:58.232Z,17.00
2022-09-05T01:36:04.203Z,17.10
2022-09-05T01:41:18.954Z,17.00
2022-09-05T01:46:22.333Z,17.00
2022-09-05T01:51:29.368Z,16.60
2022-09-05T01:56:34.409Z,16.90
2022-09-05T02:06:40.391Z,16.90
2022-09-05T02:11:43.164Z,16.90
2022-09-05T02:16:45.881Z,16.80
2022-09-05T02:21:55.740Z,16.70
2022-09-05T02:27:00.881Z,16.70
2022-09-05T02:32:03.650Z,16.60
2022-09-05T02:37:06.398Z,16.60
2022-09-05T02:45:14.076Z,16.70
2022-09-05T02:47:37.237Z,16.50
2022-09-05T02:57:30.418Z,16.40
2022-09-05T02:58:05.673Z,16.40
2022-09-05T03:03:11.906Z,16.50
2022-09-05T03:08:14.782Z,16.40
2022-09-05T03:13:17.677Z,16.40
2022-09-05T03:18:21.621Z,16.30
2022-09-05T03:23:25.776Z,16.20
2022-09-05T03:28:35.995Z,16.10
2022-09-05T03:33:38.797Z,16.20
2022-09-05T03:38:41.643Z,16.30
2022-09-05T03:43:49.996Z,16.30
2022-09-05T03:48:52.691Z,16.30
2022-09-05T03:57:19.611Z,16.30
2022-09-05T03:59:19.317Z,16.30
2022-09-05T04:08:27.805Z,16.20
2022-09-05T04:09:53.278Z,16.10
2022-09-05T04:14:58.860Z,16.20
2022-09-05T04:20:01.930Z,16.00
2022-09-05T04:25:04.690Z,16.10
2022-09-05T04:30:31.200Z,16.10
2022-09-05T04:35:30.864Z,16.00
2022-09-05T04:40:33.709Z,16.00
2022-09-05T04:45:36.893Z,15.90
2022-09-05T04:50:39.778Z,15.90
2022-09-05T04:55:46.704Z,15.90
2022-09-05T05:05:16.563Z,15.90
2022-09-05T05:17:28.462Z,16.20
2022-09-05T05:18:13.920Z,16.30
2022-09-05T05:22:30.042Z,16.40
2022-09-05T05:27:32.795Z,16.70
2022-09-05T05:32:45.651Z,16.80
2022-09-05T05:37:49.070Z,17.10
2022-09-05T05:42:53.761Z,17.10
2022-09-05T05:47:56.560Z,17.30
2022-09-05T05:52:59.354Z,17.50
2022-09-05T05:58:02.182Z,17.70
2022-09-05T06:03:13.604Z,17.20
2022-09-05T06:11:18.113Z,17.70
2022-09-05T06:14:57.996Z,17.80
2022-09-05T06:19:15.931Z,17.90
2022-09-05T06:24:21.399Z,17.80
2022-09-05T06:29:24.990Z,17.80
2022-09-05T06:34:38.104Z,18.00
2022-09-05T06:39:41.044Z,18.10
2022-09-05T06:44:49.415Z,18.20
2022-09-05T06:49:54.979Z,18.40
2022-09-05T06:54:59.978Z,18.50
2022-09-05T07:00:04.402Z,18.70
2022-09-05T07:05:37.674Z,18.90
2022-09-05T07:10:45.452Z,18.90
2022-09-05T07:15:48.334Z,19.00
2022-09-05T07:21:16.739Z,19.00
2022-09-05T07:26:35.033Z,19.10
2022-09-05T07:31:38.210Z,19.30
2022-09-05T07:36:41.257Z,19.20
2022-09-05T07:41:46.265Z,19.40
2022-09-05T07:46:49.255Z,19.70
2022-09-05T07:56:49.195Z,20.10
2022-09-05T07:57:30.738Z,20.50
2022-09-05T08:02:35.654Z,20.80
2022-09-05T08:07:48.272Z,21.00
2022-09-05T08:13:24.048Z,21.10
2022-09-05T08:18:17.846Z,21.20
2022-09-05T08:23:20.659Z,21.40
2022-09-05T08:28:24.319Z,21.60
2022-09-05T08:33:32.348Z,21.50
2022-09-05T08:38:40.486Z,21.40
2022-09-05T08:46:35.547Z,21.40
2022-09-05T08:49:16.269Z,21.50
2022-09-05T08:54:28.299Z,21.60
2022-09-05T08:59:32.801Z,22.00
2022-09-05T09:05:01.009Z,22.40
2022-09-05T09:10:00.427Z,22.50
2022-09-05T09:15:03.307Z,22.60
2022-09-05T09:20:09.655Z,23.00
2022-09-05T09:25:15.814Z,23.40
2022-09-05T09:30:19.416Z,23.60
2022-09-05T09:35:22.317Z,23.80
2022-09-05T09:40:25.633Z,24.00
2022-09-05T09:45:29.589Z,24.10
2022-09-05T09:50:32.569Z,24.10
2022-09-05T09:55:40.968Z,24.00
2022-09-05T10:00:43.808Z,24.10
2022-09-05T10:10:38.272Z,24.10
2022-09-05T10:11:51.449Z,24.30
2022-09-05T10:16:32.495Z,24.30
2022-09-05T10:21:35.268Z,24.30
2022-09-05T10:26:38.523Z,24.20
2022-09-05T10:33:09.103Z,24.10
2022-09-05T10:37:05.400Z,24.10
2022-09-05T10:42:08.930Z,24.10
2022-09-05T10:47:11.875Z,24.10
2022-09-05T10:52:18.881Z,24.10
2022-09-05T10:57:22.644Z,24.30
2022-09-05T11:02:34.653Z,24.60
2022-09-05T11:07:41.873Z,24.60
2022-09-05T11:12:46.115Z,24.80
2022-09-05T11:17:53.392Z,24.80
2022-09-05T11:22:56.222Z,24.80
2022-09-05T11:27:59.125Z,24.80
2022-09-05T11:37:48.658Z,24.80
2022-09-05T11:40:02.338Z,24.80
2022-09-05T11:43:47.791Z,24.90
2022-09-05T11:48:53.545Z,25.00
2022-09-05T11:53:57.483Z,25.00
2022-09-05T11:59:05.137Z,25.00
2022-09-05T12:04:10.013Z,25.20
2022-09-05T12:09:20.259Z,25.40
2022-09-05T12:14:26.428Z,25.50
2022-09-05T12:19:29.251Z,25.50
2022-09-05T12:25:25.840Z,25.70
2022-09-05T12:30:00.273Z,25.70
2022-09-05T12:36:10.818Z,25.80
2022-09-05T12:41:39.048Z,25.90
2022-09-05T12:45:50.090Z,26.00
2022-09-05T12:50:55.469Z,26.10
2022-09-05T12:57:31.856Z,26.00
2022-09-05T13:03:04.488Z,26.00
2022-09-05T13:06:46.058Z,26.20
2022-09-05T13:14:47.955Z,26.20
2022-09-05T13:17:14.047Z,26.20
2022-09-05T13:22:19.492Z,26.20
2022-09-05T13:27:33.025Z,26.30
2022-09-05T13:38:00.082Z,26.20
2022-09-05T13:38:35.779Z,26.20
2022-09-05T13:43:27.110Z,26.30
2022-09-05T13:48:30.122Z,26.50
2022-09-05T13:53:36.838Z,26.20
2022-09-05T13:58:42.927Z,25.90
2022-09-05T14:03:55.689Z,25.80
2022-09-05T14:20:08.902Z,26.40
2022-09-05T14:25:11.741Z,26.50
2022-09-05T14:33:13.798Z,26.40
2022-09-05T14:37:43.462Z,26.40
2022-09-05T14:41:02.752Z,26.70
2022-09-05T14:46:05.876Z,27.10
2022-09-05T14:51:08.829Z,27.30
2022-09-05T14:57:23.585Z,27.50
2022-09-05T15:02:57.548Z,27.70
2022-09-05T15:06:58.462Z,27.60
2022-09-05T15:12:25.938Z,27.10
2022-09-05T15:17:23.937Z,27.00
2022-09-05T15:22:27.358Z,26.80
2022-09-05T15:27:30.688Z,26.40
2022-09-05T15:32:37.974Z,26.20
2022-09-05T15:37:40.912Z,26.10
2022-09-05T15:42:43.763Z,26.10
2022-09-05T15:47:47.389Z,26.20
2022-09-05T15:52:55.441Z,26.10
2022-09-05T15:57:59.127Z,25.90
2022-09-05T16:03:36.495Z,25.80
2022-09-05T16:10:41.915Z,25.70
2022-09-05T16:13:53.362Z,25.60
2022-09-05T16:23:17.725Z,25.50
2022-09-05T16:24:24.845Z,25.40
2022-09-05T16:29:43.524Z,25.20
2022-09-05T16:34:46.269Z,25.10
2022-09-05T16:39:49.458Z,25.00
2022-09-05T16:44:52.306Z,24.90
2022-09-05T16:49:57.311Z,24.70
2022-09-05T16:55:03.001Z,24.60
2022-09-05T17:00:05.770Z,24.60
2022-09-05T17:05:08.745Z,24.50
2022-09-05T17:10:11.572Z,24.30
2022-09-05T17:15:14.395Z,24.20
2022-09-05T17:20:17.118Z,24.10
2022-09-05T17:29:47.236Z,24.00
2022-09-05T17:36:06.611Z,23.60
2022-09-05T17:41:09.489Z,23.40
2022-09-05T17:46:12.277Z,23.20
2022-09-05T17:51:16.637Z,23.10
2022-09-05T17:56:22.699Z,23.00
2022-09-05T18:01:28.862Z,22.80
2022-09-05T18:06:31.844Z,22.60
2022-09-05T18:11:36.304Z,22.40
2022-09-05T18:17:35.203Z,22.40
2022-09-05T18:22:06.611Z,22.20
2022-09-05T18:27:15.054Z,22.10
2022-09-05T18:32:32.354Z,22.00
2022-09-05T18:37:35.612Z,21.90
2022-09-05T18:42:38.496Z,21.70
2022-09-05T18:47:52.866Z,21.60
2022-09-05T18:53:08.640Z,21.50
2022-09-05T18:58:12.644Z,21.50
2022-09-05T19:03:15.753Z,21.40
2022-09-05T19:08:28.917Z,21.10
2022-09-05T19:13:32.461Z,21.10
2022-09-05T19:18:35.221Z,20.90
2022-09-05T19:23:38.018Z,20.80
2022-09-05T19:36:48.994Z,20.50
2022-09-05T19:37:06.615Z,20.50
2022-09-05T19:41:36.806Z,20.50
2022-09-05T19:47:36.578Z,20.50
2022-09-05T19:50:12.477Z,20.60
2022-09-05T19:55:15.289Z,20.60
2022-09-05T20:00:21.167Z,20.60
2022-09-05T20:05:26.286Z,20.50
2022-09-05T20:10:29.164Z,20.50
2022-09-05T20:15:36.256Z,20.40
2022-09-05T20:20:39.494Z,20.30
2022-09-05T20:25:47.345Z,20.20
2022-09-05T20:30:50.177Z,20.40
2022-09-05T20:37:54.521Z,20.20
2022-09-05T20:43:14.803Z,20.10
2022-09-05T20:49:53.938Z,20.00
2022-09-05T20:54:17.369Z,20.00
2022-09-05T20:57:25.993Z,19.90
2022-09-05T21:02:33.012Z,19.80
2022-09-05T21:07:37.333Z,19.70
2022-09-05T21:12:40.115Z,19.50
2022-09-05T21:17:43.370Z,19.60
2022-09-05T21:22:46.345Z,19.50
2022-09-05T21:32:54.052Z,19.50
2022-09-05T21:37:57.127Z,19.60
2022-09-05T21:47:21.663Z,19.50
2022-09-05T21:48:22.976Z,19.50
2022-09-05T21:56:54.610Z,19.40
2022-09-05T21:59:30.190Z,19.40
2022-09-05T22:04:15.290Z,19.40
2022-09-05T22:09:18.065Z,19.40
2022-09-05T22:14:20.818Z,19.30
2022-09-05T22:19:26.246Z,19.30
2022-09-05T22:24:40.406Z,19.20
2022-09-05T22:29:47.346Z,19.10
2022-09-05T22:34:53.438Z,19.00
2022-09-05T22:39:56.225Z,18.90
2022-09-05T22:44:59.059Z,18.90
2022-09-05T22:50:01.802Z,18.80
2022-09-05T22:55:04.559Z,18.80
2022-09-05T23:00:07.511Z,18.70
2022-09-05T23:05:10.630Z,18.70
2022-09-05T23:10:13.478Z,18.70
2022-09-05T23:15:16.226Z,18.80
2022-09-05T23:20:19.014Z,18.80
2022-09-05T23:25:22.263Z,18.70
2022-09-05T23:30:29.828Z,18.80
2022-09-05T23:35:32.570Z,18.80
2022-09-05T23:40:35.400Z,18.80
2022-09-05T23:45:38.100Z,18.90
2022-09-05T23:50:40.815Z,18.70
2022-09-05T23:55:43.902Z,18.60
